createdAt,value
2023-03-18T00:00:21.620Z,11.69
2023-03-18T00:01:21.592Z,11.69
2023-03-18T00:02:21.599Z,11.69
2023-03-18T00:03:21.628Z,11.69
2023-03-18T00:04:21.567Z,11.67
2023-03-18T00:05:21.564Z,11.67
2023-03-18T00:06:21.649Z,11.67
2023-03-18T00:07:21.520Z,11.67
2023-03-18T00:08:21.511Z,11.67
2023-03-18T00:09:21.501Z,11.66
2023-03-18T00:10:21.541Z,11.66
2023-03-18T00:11:21.504Z,11.66
2023-03-18T00:12:21.462Z,11.66
2023-03-18T00:13:21.473Z,11.66
2023-03-18T00:14:21.446Z,11.66
2023-03-18T00:15:21.455Z,11.64
2023-03-18T00:16:21.535Z,11.66
2023-03-18T00:17:21.422Z,11.62
2023-03-18T00:18:21.416Z,11.61
2023-03-18T00:19:21.407Z,11.62
2023-03-18T00:20:21.435Z,11.64
2023-03-18T00:21:21.376Z,11.62
2023-03-18T00:22:21.367Z,11.61
2023-03-18T00:23:21.357Z,11.61
2023-03-18T00:24:21.347Z,11.61
2023-03-18T00:25:21.367Z,11.61
2023-03-18T00:26:21.320Z,11.61
2023-03-18T00:27:21.317Z,11.61
2023-03-18T00:28:21.299Z,11.59
2023-03-18T00:29:21.291Z,11.58
2023-03-18T00:30:21.288Z,11.56
2023-03-18T00:31:21.282Z,11.58
2023-03-18T00:32:21.259Z,11.56
2023-03-18T00:33:21.250Z,11.55
2023-03-18T00:34:21.241Z,11.58
2023-03-18T00:35:21.250Z,11.55
2023-03-18T00:36:21.212Z,11.55
2023-03-18T00:37:21.202Z,11.55
2023-03-18T00:38:21.207Z,11.55
2023-03-18T00:39:21.183Z,11.56
2023-03-18T00:40:21.182Z,11.54
2023-03-18T00:41:21.167Z,11.54
2023-03-18T00:42:21.151Z,11.54
2023-03-18T00:43:21.143Z,11.54
2023-03-18T00:44:21.133Z,11.54
2023-03-18T00:45:21.142Z,11.54
2023-03-18T00:46:21.114Z,11.52
2023-03-18T00:47:21.104Z,11.51
2023-03-18T00:48:21.077Z,11.51
2023-03-18T00:49:21.074Z,11.51
2023-03-18T00:50:21.076Z,11.49
2023-03-18T00:51:21.057Z,11.49
2023-03-18T00:52:21.036Z,11.48
2023-03-18T00:53:21.027Z,11.49
2023-03-18T00:54:21.025Z,11.48
2023-03-18T00:55:21.028Z,11.48
2023-03-18T00:56:20.998Z,11.48
2023-03-18T00:57:20.988Z,11.46
2023-03-18T00:58:20.984Z,11.46
2023-03-18T00:59:20.981Z,11.46
2023-03-18T01:00:20.993Z,11.46
2023-03-18T01:01:21.019Z,11.45
2023-03-18T01:02:21.031Z,11.45
2023-03-18T01:03:20.924Z,11.46
2023-03-18T01:04:20.903Z,11.45
2023-03-18T01:05:20.922Z,11.45
2023-03-18T01:06:20.897Z,11.45
2023-03-18T01:07:20.886Z,11.46
2023-03-18T01:08:20.905Z,11.45
2023-03-18T01:09:20.868Z,11.45
2023-03-18T01:10:20.870Z,11.45
2023-03-18T01:11:20.846Z,11.45
2023-03-18T01:12:20.826Z,11.45
2023-03-18T01:13:20.820Z,11.43
2023-03-18T01:14:20.814Z,11.43
2023-03-18T01:15:20.824Z,11.43
2023-03-18T01:16:20.828Z,11.43
2023-03-18T01:17:20.780Z,11.43
2023-03-18T01:18:20.764Z,11.43
2023-03-18T01:19:21.096Z,11.45
2023-03-18T01:20:20.761Z,11.43
2023-03-18T01:21:20.731Z,11.43
2023-03-18T01:22:20.728Z,11.43
2023-03-18T01:23:20.714Z,11.45
2023-03-18T01:24:20.701Z,11.43
2023-03-18T01:25:20.719Z,11.45
2023-03-18T01:26:20.692Z,11.45
2023-03-18T01:27:20.670Z,11.45
2023-03-18T01:28:20.653Z,11.45
2023-03-18T01:29:20.643Z,11.46
2023-03-18T01:30:20.681Z,11.46
2023-03-18T01:31:20.686Z,11.46
2023-03-18T01:32:20.623Z,11.46
2023-03-18T01:33:20.607Z,11.46
2023-03-18T01:34:20.591Z,11.46
2023-03-18T01:35:20.605Z,11.48
2023-03-18T01:36:20.564Z,11.48
2023-03-18T01:37:20.564Z,11.46
2023-03-18T01:38:20.545Z,11.48
2023-03-18T01:39:20.550Z,11.46
2023-03-18T01:40:20.548Z,11.46
2023-03-18T01:41:20.517Z,11.46
2023-03-18T01:42:20.507Z,11.48
2023-03-18T01:43:20.526Z,11.48
2023-03-18T01:44:20.490Z,11.48
2023-03-18T01:45:20.496Z,11.49
2023-03-18T01:46:20.466Z,11.49
2023-03-18T01:47:20.458Z,11.49
2023-03-18T01:48:20.447Z,11.49
2023-03-18T01:49:20.435Z,11.49
2023-03-18T01:50:20.437Z,11.48
2023-03-18T01:51:20.431Z,11.49
2023-03-18T01:52:20.395Z,11.48
2023-03-18T01:53:20.415Z,11.48
2023-03-18T01:54:20.381Z,11.48
2023-03-18T01:55:20.393Z,11.46
2023-03-18T01:56:20.348Z,11.46
2023-03-18T01:57:20.337Z,11.45
2023-03-18T01:58:20.328Z,11.43
2023-03-18T01:59:20.328Z,11.43
2023-03-18T02:00:20.318Z,11.38
2023-03-18T02:01:20.337Z,11.40
2023-03-18T02:02:20.288Z,11.37
2023-03-18T02:03:20.304Z,11.38
2023-03-18T02:04:20.259Z,11.34
2023-03-18T02:10:22.748Z,11.31
2023-03-18T02:11:06.011Z,11.30
2023-03-18T02:12:06.000Z,11.30
2023-03-18T02:13:05.999Z,11.28
2023-03-18T02:14:05.988Z,11.27
2023-03-18T02:15:05.999Z,11.23
2023-03-18T02:16:05.961Z,11.22
2023-03-18T02:17:05.981Z,11.20
2023-03-18T02:18:05.996Z,11.16
2023-03-18T02:19:05.931Z,11.16
2023-03-18T02:20:05.937Z,11.13
2023-03-18T02:21:05.965Z,11.09
2023-03-18T02:22:05.893Z,11.08
2023-03-18T02:23:05.916Z,11.04
2023-03-18T02:24:05.882Z,11.03
2023-03-18T02:25:05.902Z,10.98
2023-03-18T02:26:05.887Z,10.97
2023-03-18T02:27:05.853Z,10.93
2023-03-18T02:28:05.835Z,10.90
2023-03-18T02:29:05.834Z,10.87
2023-03-18T02:30:05.826Z,10.83
2023-03-18T02:31:05.894Z,10.82
2023-03-18T02:32:05.797Z,10.80
2023-03-18T02:33:05.888Z,10.76
2023-03-18T02:34:05.786Z,10.75
2023-03-18T02:35:05.768Z,10.72
2023-03-18T02:36:05.758Z,10.70
2023-03-18T02:37:05.748Z,10.70
2023-03-18T02:38:05.743Z,10.67
2023-03-18T02:39:05.737Z,10.65
2023-03-18T02:40:05.751Z,10.65
2023-03-18T02:41:05.723Z,10.62
2023-03-18T02:42:05.680Z,10.61
2023-03-18T02:43:05.681Z,10.57
2023-03-18T02:44:05.669Z,10.57
2023-03-18T02:45:05.663Z,10.55
2023-03-18T02:46:05.786Z,10.52
2023-03-18T02:47:05.662Z,10.49
2023-03-18T02:48:05.626Z,10.48
2023-03-18T02:49:05.624Z,10.48
2023-03-18T02:50:05.606Z,10.48
2023-03-18T02:51:05.620Z,10.46
2023-03-18T02:52:05.585Z,10.43
2023-03-18T02:53:05.598Z,10.39
2023-03-18T02:54:05.569Z,10.36
2023-03-18T02:55:05.565Z,10.35
2023-03-18T02:56:05.558Z,10.30
2023-03-18T02:57:05.549Z,10.26
2023-03-18T02:58:05.567Z,10.21
2023-03-18T02:59:05.557Z,10.18
2023-03-18T03:00:05.505Z,10.16
2023-03-18T03:01:05.563Z,10.14
2023-03-18T03:02:05.485Z,10.10
2023-03-18T03:03:05.597Z,10.08
2023-03-18T03:04:05.462Z,10.06
2023-03-18T03:05:05.467Z,10.03
2023-03-18T03:06:05.452Z,10.01
2023-03-18T03:07:05.436Z,9.98
2023-03-18T03:08:05.413Z,9.94
2023-03-18T03:09:05.425Z,9.96
2023-03-18T03:10:05.402Z,9.94
2023-03-18T03:11:05.394Z,9.93
2023-03-18T03:12:05.382Z,9.93
2023-03-18T03:13:05.366Z,9.90
2023-03-18T03:14:05.361Z,9.90
2023-03-18T03:15:05.349Z,9.91
2023-03-18T03:16:05.377Z,9.91
2023-03-18T03:17:05.330Z,9.91
2023-03-18T03:18:05.331Z,9.91
2023-03-18T03:19:05.297Z,9.91
2023-03-18T03:20:05.297Z,9.91
2023-03-18T03:21:05.305Z,9.91
2023-03-18T03:22:05.283Z,9.91
2023-03-18T03:23:05.261Z,9.91
2023-03-18T03:24:05.260Z,9.90
2023-03-18T03:25:05.250Z,9.91
2023-03-18T03:26:05.249Z,9.90
2023-03-18T03:27:05.213Z,9.88
2023-03-18T03:28:05.213Z,9.88
2023-03-18T03:29:05.199Z,9.88
2023-03-18T03:30:05.189Z,9.88
2023-03-18T03:31:05.240Z,9.88
2023-03-18T03:32:05.163Z,9.85
2023-03-18T03:33:05.215Z,9.85
2023-03-18T03:34:05.161Z,9.84
2023-03-18T03:35:05.138Z,9.84
2023-03-18T03:36:05.198Z,9.84
2023-03-18T03:37:05.116Z,9.83
2023-03-18T03:38:05.105Z,9.84
2023-03-18T03:39:05.086Z,9.83
2023-03-18T03:40:05.099Z,9.83
2023-03-18T03:41:05.078Z,9.83
2023-03-18T03:42:05.065Z,9.81
2023-03-18T03:43:05.049Z,9.81
2023-03-18T03:44:05.055Z,9.80
2023-03-18T03:45:05.029Z,9.78
2023-03-18T03:46:05.095Z,9.77
2023-03-18T03:47:05.007Z,9.77
2023-03-18T03:48:05.000Z,9.75
2023-03-18T03:49:04.988Z,9.75
2023-03-18T03:50:04.979Z,9.73
2023-03-18T03:51:04.971Z,9.73
2023-03-18T03:52:04.960Z,9.73
2023-03-18T03:53:04.950Z,9.73
2023-03-18T03:54:04.935Z,9.73
2023-03-18T03:55:04.922Z,9.72
2023-03-18T03:56:04.929Z,9.70
2023-03-18T03:57:04.900Z,9.70
2023-03-18T03:58:04.900Z,9.70
2023-03-18T03:59:04.908Z,9.70
2023-03-18T04:00:04.871Z,9.70
2023-03-18T04:01:04.874Z,9.70
2023-03-18T04:02:04.867Z,9.70
2023-03-18T04:03:04.842Z,9.69
2023-03-18T04:04:04.859Z,9.69
2023-03-18T04:05:04.814Z,9.67
2023-03-18T04:06:04.827Z,9.67
2023-03-18T04:07:04.793Z,9.69
2023-03-18T04:08:04.784Z,9.67
2023-03-18T04:09:04.783Z,9.67
2023-03-18T04:10:04.764Z,9.67
2023-03-18T04:11:04.765Z,9.66
2023-03-18T04:12:04.746Z,9.65
2023-03-18T04:13:04.725Z,9.65
2023-03-18T04:14:04.725Z,9.65
2023-03-18T04:15:04.706Z,9.67
2023-03-18T04:16:04.765Z,9.67
2023-03-18T04:17:04.686Z,9.67
2023-03-18T04:18:04.690Z,9.67
2023-03-18T04:19:04.669Z,9.67
2023-03-18T04:20:04.675Z,9.65
2023-03-18T04:21:04.660Z,9.66
2023-03-18T04:22:04.651Z,9.66
2023-03-18T04:23:04.672Z,9.66
2023-03-18T04:24:04.625Z,9.65
2023-03-18T04:25:04.606Z,9.65
2023-03-18T04:26:04.609Z,9.63
2023-03-18T04:27:04.580Z,9.63
2023-03-18T04:28:04.576Z,9.62
2023-03-18T04:29:04.570Z,9.62
2023-03-18T04:30:04.558Z,9.62
2023-03-18T04:31:04.584Z,9.60
2023-03-18T04:32:04.530Z,9.60
2023-03-18T04:33:04.593Z,9.60
2023-03-18T04:34:04.511Z,9.59
2023-03-18T04:35:04.491Z,9.60
2023-03-18T04:36:04.531Z,9.62
2023-03-18T04:37:04.479Z,9.60
2023-03-18T04:38:04.471Z,9.62
2023-03-18T04:39:04.452Z,9.62
2023-03-18T04:40:04.442Z,9.63
2023-03-18T04:41:04.443Z,9.63
2023-03-18T04:42:04.425Z,9.62
2023-03-18T04:43:04.418Z,9.63
2023-03-18T04:44:04.407Z,9.63
2023-03-18T04:45:04.394Z,9.63
2023-03-18T04:46:04.394Z,9.62
2023-03-18T04:47:04.374Z,9.63
2023-03-18T04:48:04.402Z,9.63
2023-03-18T04:49:04.344Z,9.63
2023-03-18T04:50:04.364Z,9.62
2023-03-18T04:51:04.346Z,9.63
2023-03-18T04:52:04.317Z,9.63
2023-03-18T04:53:04.307Z,9.63
2023-03-18T04:54:04.312Z,9.65
2023-03-18T04:55:04.285Z,9.65
2023-03-18T04:56:04.306Z,9.63
2023-03-18T04:57:04.267Z,9.65
2023-03-18T04:58:04.257Z,9.65
2023-03-18T04:59:04.239Z,9.65
2023-03-18T05:00:04.239Z,9.66
2023-03-18T05:01:04.257Z,9.65
2023-03-18T05:02:04.221Z,9.67
2023-03-18T05:03:04.198Z,9.66
2023-03-18T05:04:04.195Z,9.67
2023-03-18T05:05:04.182Z,9.66
2023-03-18T05:06:04.198Z,9.66
2023-03-18T05:07:04.152Z,9.65
2023-03-18T05:08:04.152Z,9.65
2023-03-18T05:09:04.141Z,9.66
2023-03-18T05:10:04.134Z,9.65
2023-03-18T05:11:04.139Z,9.67
2023-03-18T05:12:04.114Z,9.67
2023-03-18T05:13:04.093Z,9.66
2023-03-18T05:14:04.094Z,9.67
2023-03-18T05:15:04.096Z,9.69
2023-03-18T05:16:04.091Z,9.69
2023-03-18T05:17:04.068Z,9.69
2023-03-18T05:18:04.046Z,9.70
2023-03-18T05:19:04.039Z,9.70
2023-03-18T05:20:04.028Z,9.72
2023-03-18T05:21:04.031Z,9.72
2023-03-18T05:22:04.070Z,9.72
2023-03-18T05:23:03.988Z,9.72
2023-03-18T05:24:03.999Z,9.72
2023-03-18T05:25:03.971Z,9.70
2023-03-18T05:26:03.970Z,9.70
2023-03-18T05:27:04.021Z,9.70
2023-03-18T05:28:03.940Z,9.70
2023-03-18T05:29:03.928Z,9.70
2023-03-18T05:30:03.922Z,9.69
2023-03-18T05:31:03.859Z,9.72
2023-03-18T05:32:03.913Z,9.70
2023-03-18T05:33:03.894Z,9.70
2023-03-18T05:34:03.881Z,9.69
2023-03-18T05:35:03.879Z,9.67
2023-03-18T05:36:03.871Z,9.69
2023-03-18T05:37:03.853Z,9.67
2023-03-18T05:38:03.865Z,9.66
2023-03-18T05:39:03.825Z,9.67
2023-03-18T05:40:03.821Z,9.67
2023-03-18T05:41:03.753Z,9.66
2023-03-18T05:42:03.771Z,9.67
2023-03-18T05:43:03.782Z,9.66
2023-03-18T05:44:03.782Z,9.66
2023-03-18T05:45:03.761Z,9.65
2023-03-18T05:46:03.747Z,9.65
2023-03-18T05:47:03.693Z,9.66
2023-03-18T05:48:03.690Z,9.66
2023-03-18T05:49:03.664Z,9.65
2023-03-18T05:50:03.653Z,9.65
2023-03-18T05:51:03.648Z,9.65
2023-03-18T05:52:03.645Z,9.66
2023-03-18T05:53:03.616Z,9.67
2023-03-18T05:54:03.605Z,9.67
2023-03-18T05:55:03.600Z,9.67
2023-03-18T05:56:03.589Z,9.66
2023-03-18T05:57:03.587Z,9.67
2023-03-18T05:58:03.576Z,9.67
2023-03-18T05:59:03.561Z,9.69
2023-03-18T06:00:03.553Z,9.70
2023-03-18T06:01:03.540Z,9.70
2023-03-18T06:02:03.668Z,9.72
2023-03-18T06:03:03.525Z,9.73
2023-03-18T06:04:03.514Z,9.75
2023-03-18T06:05:03.498Z,9.75
2023-03-18T06:06:03.490Z,9.78
2023-03-18T06:07:03.495Z,9.78
2023-03-18T06:08:03.470Z,9.78
2023-03-18T06:09:03.452Z,9.78
2023-03-18T06:10:03.455Z,9.80
2023-03-18T06:11:03.426Z,9.81
2023-03-18T06:12:03.439Z,9.80
2023-03-18T06:13:03.418Z,9.83
2023-03-18T06:14:03.410Z,9.85
2023-03-18T06:15:03.387Z,9.84
2023-03-18T06:16:03.388Z,9.85
2023-03-18T06:17:03.377Z,9.85
2023-03-18T06:18:03.361Z,9.87
2023-03-18T06:19:03.396Z,9.88
2023-03-18T06:20:03.344Z,9.91
2023-03-18T06:21:03.334Z,9.93
2023-03-18T06:22:03.370Z,9.98
2023-03-18T06:23:03.300Z,9.98
2023-03-18T06:24:03.309Z,9.99
2023-03-18T06:25:03.288Z,10.02
2023-03-18T06:26:03.281Z,10.03
2023-03-18T06:27:03.286Z,10.06
2023-03-18T06:28:03.267Z,10.08
2023-03-18T06:29:03.238Z,10.10
2023-03-18T06:30:03.245Z,10.12
2023-03-18T06:31:03.252Z,10.14
2023-03-18T06:32:03.237Z,10.16
2023-03-18T06:33:03.246Z,10.18
2023-03-18T06:34:03.201Z,10.21
2023-03-18T06:35:03.173Z,10.23
2023-03-18T06:36:03.237Z,10.24
2023-03-18T06:37:03.199Z,10.27
2023-03-18T06:38:03.167Z,10.30
2023-03-18T06:39:03.137Z,10.34
2023-03-18T06:40:03.128Z,10.35
2023-03-18T06:41:03.109Z,10.36
2023-03-18T06:42:03.117Z,10.39
2023-03-18T06:43:03.096Z,10.42
2023-03-18T06:44:03.091Z,10.43
2023-03-18T06:45:03.085Z,10.45
2023-03-18T06:46:03.116Z,10.48
2023-03-18T06:47:03.330Z,10.49
2023-03-18T06:48:03.051Z,10.54
2023-03-18T06:49:03.031Z,10.57
2023-03-18T06:50:03.024Z,10.60
2023-03-18T06:51:03.010Z,10.61
2023-03-18T06:52:03.025Z,10.64
2023-03-18T06:53:03.006Z,10.68
2023-03-18T06:54:02.981Z,10.70
2023-03-18T06:55:02.962Z,10.73
2023-03-18T06:56:02.962Z,10.76
2023-03-18T06:57:02.967Z,10.79
2023-03-18T06:58:02.944Z,10.80
2023-03-18T06:59:02.923Z,10.82
2023-03-18T07:00:02.930Z,10.85
2023-03-18T07:01:02.959Z,10.86
2023-03-18T07:02:02.926Z,10.87
2023-03-18T07:03:02.904Z,10.91
2023-03-18T07:04:02.911Z,10.94
2023-03-18T07:05:02.873Z,10.94
2023-03-18T07:06:02.852Z,10.97
2023-03-18T07:07:02.866Z,10.98
2023-03-18T07:08:02.845Z,11.01
2023-03-18T07:09:02.827Z,11.01
2023-03-18T07:10:02.908Z,11.05
2023-03-18T07:11:02.824Z,11.08
2023-03-18T07:12:02.827Z,11.11
2023-03-18T07:13:02.782Z,11.11
2023-03-18T07:14:02.777Z,11.12
2023-03-18T07:15:02.792Z,11.15
2023-03-18T07:16:02.783Z,11.16
2023-03-18T07:17:02.751Z,11.16
2023-03-18T07:18:02.719Z,11.19
2023-03-18T07:19:02.731Z,11.20
2023-03-18T07:20:02.707Z,11.23
2023-03-18T07:21:02.697Z,11.23
2023-03-18T07:22:02.690Z,11.25
2023-03-18T07:23:02.723Z,11.27
2023-03-18T07:24:02.661Z,11.30
2023-03-18T07:25:02.656Z,11.33
2023-03-18T07:26:02.642Z,11.36
2023-03-18T07:27:02.650Z,11.36
2023-03-18T07:28:02.613Z,11.37
2023-03-18T07:29:02.611Z,11.38
2023-03-18T07:30:02.594Z,11.40
2023-03-18T07:31:02.651Z,11.45
2023-03-18T07:32:02.602Z,11.43
2023-03-18T07:33:02.657Z,11.43
2023-03-18T07:34:02.558Z,11.46
2023-03-18T07:35:02.544Z,11.45
2023-03-18T07:36:02.579Z,11.43
2023-03-18T07:37:02.547Z,11.45
2023-03-18T07:38:02.515Z,11.45
2023-03-18T07:39:02.509Z,11.45
2023-03-18T07:40:02.487Z,11.46
2023-03-18T07:41:02.488Z,11.45
2023-03-18T07:42:02.484Z,11.46
2023-03-18T07:43:02.481Z,11.45
2023-03-18T07:44:02.458Z,11.46
2023-03-18T07:45:02.448Z,11.49
2023-03-18T07:46:02.464Z,11.48
2023-03-18T07:47:02.446Z,11.49
2023-03-18T07:48:02.416Z,11.49
2023-03-18T07:49:02.429Z,11.51
2023-03-18T07:50:02.381Z,11.49
2023-03-18T07:51:02.396Z,11.52
2023-03-18T07:52:02.386Z,11.54
2023-03-18T07:53:02.374Z,11.54
2023-03-18T07:54:02.420Z,11.54
2023-03-18T07:55:02.356Z,11.55
2023-03-18T07:56:02.356Z,11.56
2023-03-18T07:57:02.406Z,11.58
2023-03-18T07:58:02.329Z,11.58
2023-03-18T07:59:02.293Z,11.61
2023-03-18T08:00:02.289Z,11.62
2023-03-18T08:01:02.275Z,11.64
2023-03-18T08:02:02.282Z,11.66
2023-03-18T08:03:02.263Z,11.67
2023-03-18T08:04:02.293Z,11.70
2023-03-18T08:05:02.333Z,11.73
2023-03-18T08:06:02.214Z,11.74
2023-03-18T08:07:02.227Z,11.76
2023-03-18T08:08:02.211Z,11.77
2023-03-18T08:09:02.222Z,11.79
2023-03-18T08:10:02.181Z,11.80
2023-03-18T08:11:02.173Z,11.84
2023-03-18T08:12:02.187Z,11.85
2023-03-18T08:13:02.148Z,11.87
2023-03-18T08:14:02.139Z,11.91
2023-03-18T08:15:02.146Z,11.91
2023-03-18T08:16:02.168Z,11.95
2023-03-18T08:17:02.127Z,11.97
2023-03-18T08:18:02.103Z,11.99
2023-03-18T08:19:02.100Z,12.03
2023-03-18T08:20:02.083Z,12.05
2023-03-18T08:21:02.078Z,12.07
2023-03-18T08:22:02.087Z,12.10
2023-03-18T08:23:02.052Z,12.11
2023-03-18T08:24:02.032Z,12.13
2023-03-18T08:25:02.035Z,12.15
2023-03-18T08:26:02.067Z,12.15
2023-03-18T08:27:02.020Z,12.18
2023-03-18T08:28:01.992Z,12.21
2023-03-18T08:29:01.990Z,12.21
2023-03-18T08:30:03.828Z,12.22
2023-03-18T08:31:01.980Z,12.25
2023-03-18T08:32:01.977Z,12.29
2023-03-18T08:33:02.026Z,12.29
2023-03-18T08:34:01.941Z,12.35
2023-03-18T08:35:01.930Z,12.38
2023-03-18T08:36:02.034Z,12.41
2023-03-18T08:37:01.905Z,12.44
2023-03-18T08:38:01.936Z,12.46
2023-03-18T08:39:01.878Z,12.48
2023-03-18T08:40:01.866Z,12.48
2023-03-18T08:41:01.866Z,12.51
2023-03-18T08:42:01.835Z,12.53
2023-03-18T08:43:01.850Z,12.54
2023-03-18T08:44:01.821Z,12.55
2023-03-18T08:45:01.823Z,12.58
2023-03-18T08:46:01.828Z,12.59
2023-03-18T08:47:01.818Z,12.59
2023-03-18T08:48:01.797Z,12.62
2023-03-18T08:49:01.770Z,12.65
2023-03-18T08:50:01.777Z,12.65
2023-03-18T08:51:01.753Z,12.69
2023-03-18T08:52:01.746Z,12.72
2023-03-18T08:53:01.743Z,12.73
2023-03-18T08:54:01.730Z,12.77
2023-03-18T08:55:01.714Z,12.77
2023-03-18T08:56:02.960Z,12.79
2023-03-18T08:57:01.690Z,12.81
2023-03-18T08:58:01.699Z,12.84
2023-03-18T08:59:01.679Z,12.87
2023-03-18T09:00:01.649Z,12.90
2023-03-18T09:01:01.694Z,12.91
2023-03-18T09:02:01.628Z,12.93
2023-03-18T09:03:01.842Z,12.96
2023-03-18T09:04:01.621Z,12.98
2023-03-18T09:05:01.599Z,12.98
2023-03-18T09:06:01.610Z,12.99
2023-03-18T09:07:01.596Z,13.02
2023-03-18T09:08:01.585Z,13.02
2023-03-18T09:09:01.562Z,13.01
2023-03-18T09:10:01.576Z,13.02
2023-03-18T09:11:01.546Z,13.04
2023-03-18T09:12:01.523Z,13.02
2023-03-18T09:13:01.545Z,13.02
2023-03-18T09:14:01.519Z,13.04
2023-03-18T09:15:01.510Z,13.06
2023-03-18T09:16:01.489Z,13.08
2023-03-18T09:17:02.356Z,13.11
2023-03-18T09:18:11.093Z,13.13
2023-03-18T09:19:02.455Z,13.13
2023-03-18T09:20:01.444Z,13.13
2023-03-18T09:21:01.439Z,13.16
2023-03-18T09:22:01.425Z,13.19
2023-03-18T09:23:01.422Z,13.19
2023-03-18T09:24:01.412Z,13.20
2023-03-18T09:25:01.411Z,13.21
2023-03-18T09:26:01.383Z,13.23
2023-03-18T09:27:01.370Z,13.23
2023-03-18T09:28:01.372Z,13.26
2023-03-18T09:29:01.350Z,13.29
2023-03-18T09:30:01.327Z,13.32
2023-03-18T09:31:01.337Z,13.35
2023-03-18T09:32:01.311Z,13.39
2023-03-18T09:33:01.333Z,13.40
2023-03-18T09:34:01.288Z,13.38
2023-03-18T09:35:01.279Z,13.42
2023-03-18T09:36:01.288Z,13.42
2023-03-18T09:37:01.266Z,13.45
2023-03-18T09:38:01.248Z,13.45
2023-03-18T09:39:01.234Z,13.45
2023-03-18T09:40:01.219Z,13.45
2023-03-18T09:41:01.222Z,13.46
2023-03-18T09:42:01.199Z,13.47
2023-03-18T09:43:01.211Z,13.54
2023-03-18T09:44:01.186Z,13.54
2023-03-18T09:45:01.185Z,13.57
2023-03-18T09:46:01.213Z,13.60
2023-03-18T09:47:01.287Z,13.63
2023-03-18T09:48:01.153Z,13.65
2023-03-18T09:49:01.141Z,13.71
2023-03-18T09:50:01.122Z,13.76
2023-03-18T09:51:01.112Z,13.82
2023-03-18T09:52:01.092Z,13.85
2023-03-18T09:53:01.107Z,13.91
2023-03-18T09:54:01.074Z,13.96
2023-03-18T09:55:01.064Z,14.00
2023-03-18T09:56:01.059Z,14.04
2023-03-18T09:57:01.046Z,14.11
2023-03-18T09:58:01.050Z,14.13
2023-03-18T09:59:01.031Z,14.19
2023-03-18T10:00:01.016Z,14.23
2023-03-18T10:01:01.025Z,14.26
2023-03-18T10:02:01.001Z,14.30
2023-03-18T10:03:00.989Z,14.31
2023-03-18T10:04:01.151Z,14.37
2023-03-18T10:05:00.958Z,14.45
2023-03-18T10:06:00.949Z,14.51
2023-03-18T10:07:00.940Z,14.53
2023-03-18T10:08:00.960Z,14.58
2023-03-18T10:09:00.914Z,14.66
2023-03-18T10:10:00.917Z,14.71
2023-03-18T10:11:00.891Z,14.79
2023-03-18T10:12:00.881Z,14.89
2023-03-18T10:13:00.882Z,14.96
2023-03-18T10:14:00.861Z,15.03
2023-03-18T10:15:00.853Z,15.12
2023-03-18T10:16:00.859Z,15.15
2023-03-18T10:17:00.839Z,15.26
2023-03-18T10:18:00.837Z,15.30
2023-03-18T10:19:00.818Z,15.38
2023-03-18T10:20:00.805Z,15.44
2023-03-18T10:21:00.791Z,15.50
2023-03-18T10:22:00.785Z,15.54
2023-03-18T10:23:00.782Z,15.62
2023-03-18T10:24:00.765Z,15.65
2023-03-18T10:25:00.747Z,15.68
2023-03-18T10:26:00.742Z,15.76
2023-03-18T10:27:00.726Z,15.78
2023-03-18T10:28:00.734Z,15.87
2023-03-18T10:29:00.701Z,15.88
2023-03-18T10:30:00.699Z,15.90
2023-03-18T10:31:00.758Z,15.91
2023-03-18T10:32:00.681Z,15.96
2023-03-18T10:33:00.711Z,16.02
2023-03-18T10:34:00.659Z,16.06
2023-03-18T10:35:00.653Z,16.10
2023-03-18T10:36:00.667Z,16.16
2023-03-18T10:37:00.626Z,16.17
2023-03-18T10:38:00.632Z,16.22
2023-03-18T10:39:00.600Z,16.28
2023-03-18T10:40:00.600Z,16.36
2023-03-18T10:41:00.582Z,16.36
2023-03-18T10:42:00.576Z,16.36
2023-03-18T10:43:00.566Z,16.34
2023-03-18T10:44:00.547Z,16.32
2023-03-18T10:45:00.540Z,16.33
2023-03-18T10:46:00.574Z,16.29
2023-03-18T10:47:00.679Z,16.33
2023-03-18T10:48:00.526Z,16.34
2023-03-18T10:49:00.506Z,16.33
2023-03-18T10:50:00.490Z,16.33
2023-03-18T10:51:00.489Z,16.33
2023-03-18T10:52:00.470Z,16.28
2023-03-18T10:53:00.469Z,16.18
2023-03-18T10:54:00.462Z,16.17
2023-03-18T10:55:00.438Z,16.14
2023-03-18T10:56:00.422Z,16.09
2023-03-18T10:57:00.425Z,16.03
2023-03-18T10:58:00.414Z,16.02
2023-03-18T10:59:00.396Z,15.96
2023-03-18T11:00:00.395Z,15.90
2023-03-18T11:01:00.374Z,15.88
2023-03-18T11:02:00.418Z,15.87
2023-03-18T11:03:00.476Z,15.85
2023-03-18T11:04:00.347Z,15.83
2023-03-18T11:05:00.327Z,15.84
2023-03-18T11:06:01.469Z,15.83
2023-03-18T11:07:00.307Z,15.85
2023-03-18T11:08:00.335Z,15.83
2023-03-18T11:09:00.280Z,15.85
2023-03-18T11:10:00.279Z,15.88
2023-03-18T11:11:00.261Z,15.87
2023-03-18T11:12:00.262Z,15.91
2023-03-18T11:13:00.282Z,15.93
2023-03-18T11:14:00.240Z,15.95
2023-03-18T11:15:00.221Z,15.99
2023-03-18T11:16:00.241Z,15.99
2023-03-18T11:17:00.225Z,16.02
2023-03-18T11:18:00.212Z,16.03
2023-03-18T11:19:00.180Z,16.05
2023-03-18T11:20:00.180Z,16.08
2023-03-18T11:21:00.163Z,16.09
2023-03-18T11:22:00.144Z,16.16
2023-03-18T11:23:00.149Z,16.18
2023-03-18T11:24:00.148Z,16.18
2023-03-18T11:25:00.135Z,16.21
2023-03-18T11:26:00.151Z,16.21
2023-03-18T11:27:00.107Z,16.17
2023-03-18T11:28:00.101Z,16.18
2023-03-18T11:29:00.127Z,16.16
2023-03-18T11:30:00.161Z,16.10
2023-03-18T11:31:00.069Z,16.09
2023-03-18T11:32:00.063Z,16.08
2023-03-18T11:33:00.073Z,16.05
2023-03-18T11:34:00.040Z,16.05
2023-03-18T11:35:00.014Z,16.05
2023-03-18T11:36:00.065Z,16.03
2023-03-18T11:36:59.978Z,16.02
2023-03-18T11:37:59.978Z,16.08
2023-03-18T11:38:59.982Z,16.14
2023-03-18T11:39:59.959Z,16.21
2023-03-18T11:40:59.940Z,16.24
2023-03-18T11:41:59.942Z,16.25
2023-03-18T11:42:59.919Z,16.26
2023-03-18T11:43:59.930Z,16.32
2023-03-18T11:44:59.906Z,16.33
2023-03-18T11:45:59.890Z,16.33
2023-03-18T11:46:59.954Z,16.34
2023-03-18T11:47:59.884Z,16.37
2023-03-18T11:48:59.870Z,16.34
2023-03-18T11:49:59.851Z,16.33
2023-03-18T11:50:59.841Z,16.32
2023-03-18T11:51:59.830Z,16.33
2023-03-18T11:52:59.820Z,16.33
2023-03-18T11:53:59.827Z,16.34
2023-03-18T11:55:01.535Z,16.51
2023-03-18T11:55:59.792Z,16.65
2023-03-18T11:56:59.789Z,16.87
2023-03-18T11:57:59.812Z,17.04
2023-03-18T11:58:59.766Z,17.04
2023-03-18T11:59:59.746Z,17.04
2023-03-18T12:00:59.737Z,17.04
2023-03-18T12:01:59.778Z,17.09
2023-03-18T12:02:59.708Z,17.10
2023-03-18T12:03:59.728Z,17.12
2023-03-18T12:04:59.729Z,17.10
2023-03-18T12:05:59.694Z,17.13
2023-03-18T12:06:59.670Z,17.12
2023-03-18T12:07:59.660Z,17.12
2023-03-18T12:09:01.076Z,17.14
2023-03-18T12:09:59.653Z,17.16
2023-03-18T12:10:59.624Z,17.20
2023-03-18T12:11:59.613Z,17.22
2023-03-18T12:12:59.617Z,17.24
2023-03-18T12:13:59.614Z,17.28
2023-03-18T12:14:59.582Z,17.32
2023-03-18T12:15:59.589Z,17.38
2023-03-18T12:16:59.564Z,17.41
2023-03-18T12:17:59.628Z,17.46
2023-03-18T12:18:59.596Z,17.50
2023-03-18T12:19:59.539Z,17.53
2023-03-18T12:20:59.518Z,17.54
2023-03-18T12:21:59.520Z,17.53
2023-03-18T12:22:59.505Z,17.50
2023-03-18T12:23:59.498Z,17.43
2023-03-18T12:24:59.518Z,17.45
2023-03-18T12:25:59.468Z,17.39
2023-03-18T12:26:59.448Z,17.39
2023-03-18T12:27:59.452Z,17.39
2023-03-18T12:29:01.599Z,17.41
2023-03-18T12:29:59.441Z,17.37
2023-03-18T12:30:59.422Z,17.35
2023-03-18T12:31:59.468Z,17.37
2023-03-18T12:32:59.451Z,17.38
2023-03-18T12:33:59.394Z,17.39
2023-03-18T12:34:59.380Z,17.39
2023-03-18T12:35:59.399Z,17.39
2023-03-18T12:36:59.352Z,17.39
2023-03-18T12:37:59.355Z,17.41
2023-03-18T12:38:59.343Z,17.45
2023-03-18T12:39:59.319Z,17.43
2023-03-18T12:40:59.308Z,17.41
2023-03-18T12:41:59.299Z,17.39
2023-03-18T12:42:59.278Z,17.41
2023-03-18T12:43:59.299Z,17.38
2023-03-18T12:44:59.286Z,17.35
2023-03-18T12:45:59.303Z,17.31
2023-03-18T12:46:59.240Z,17.28
2023-03-18T12:47:59.249Z,17.25
2023-03-18T12:48:59.232Z,17.19
2023-03-18T12:49:59.220Z,17.17
2023-03-18T12:50:59.205Z,17.16
2023-03-18T12:51:59.195Z,17.14
2023-03-18T12:52:59.200Z,17.13
2023-03-18T12:53:59.185Z,17.10
2023-03-18T12:54:59.161Z,17.07
2023-03-18T12:55:59.165Z,17.07
2023-03-18T12:56:59.136Z,17.13
2023-03-18T12:57:59.127Z,17.16
2023-03-18T12:58:59.126Z,17.19
2023-03-18T12:59:59.153Z,17.25
2023-03-18T13:00:59.222Z,17.30
2023-03-18T13:01:59.141Z,17.32
2023-03-18T13:02:59.143Z,17.35
2023-03-18T13:03:59.086Z,17.43